createdAt,value
2023-05-04T00:00:32.158Z,102137.72
2023-05-04T00:02:59.246Z,102134.59
2023-05-04T00:05:26.730Z,102145.09
2023-05-04T00:07:53.772Z,102137.22
2023-05-04T00:10:20.827Z,102138.06
2023-05-04T00:12:47.781Z,102140.47
2023-05-04T00:15:14.829Z,102136.97
2023-05-04T00:17:41.874Z,102139.22
2023-05-04T00:20:10.046Z,102144.94
2023-05-04T00:22:36.941Z,102145.50
2023-05-04T00:25:04.029Z,102132.72
2023-05-04T00:27:31.399Z,102132.91
2023-05-04T00:29:58.429Z,102136.16
2023-05-04T00:32:25.391Z,102138.84
2023-05-04T00:34:52.480Z,102135.91
2023-05-04T00:37:21.196Z,102135.28
2023-05-04T00:39:48.302Z,102139.13
2023-05-04T00:42:15.421Z,102130.88
2023-05-04T00:44:44.683Z,102127.56
2023-05-04T00:47:13.034Z,102123.38
2023-05-04T00:49:40.077Z,102139.00
2023-05-04T00:52:07.787Z,102129.72
2023-05-04T00:54:35.225Z,102135.25
2023-05-04T00:57:03.392Z,102129.88
2023-05-04T00:59:30.546Z,102128.41
2023-05-04T01:01:57.530Z,102123.44
2023-05-04T01:04:24.449Z,102128.34
2023-05-04T01:07:11.712Z,102136.53
2023-05-04T01:09:54.425Z,102122.69
2023-05-04T01:12:42.750Z,102121.41
2023-05-04T01:15:10.452Z,102126.28
2023-05-04T01:17:37.544Z,102130.81
2023-05-04T01:20:05.373Z,102119.06
2023-05-04T01:22:32.726Z,102118.88
2023-05-04T01:24:59.683Z,102119.25
2023-05-04T01:27:36.741Z,102120.41
2023-05-04T01:30:31.852Z,102118.94
2023-05-04T01:33:01.256Z,102130.19
2023-05-04T01:35:29.508Z,102117.41
2023-05-04T01:37:57.065Z,102113.47
2023-05-04T01:40:24.173Z,102127.81
2023-05-04T01:42:51.180Z,102126.81
2023-05-04T01:45:18.256Z,102121.84
2023-05-04T01:47:45.608Z,102119.75
2023-05-04T01:50:12.500Z,102111.09
2023-05-04T01:52:39.723Z,102115.59
2023-05-04T01:55:07.189Z,102110.47
2023-05-04T01:57:34.299Z,102109.81
2023-05-04T02:00:01.363Z,102112.50
2023-05-04T02:02:28.701Z,102109.56
2023-05-04T02:04:55.853Z,102113.88
2023-05-04T02:07:23.321Z,102112.22
2023-05-04T02:09:50.303Z,102108.09
2023-05-04T02:12:17.158Z,102109.94
2023-05-04T02:14:44.010Z,102115.44
2023-05-04T02:17:11.148Z,102105.72
2023-05-04T02:19:38.428Z,102107.56
2023-05-04T02:22:06.977Z,102102.22
2023-05-04T02:24:34.318Z,102105.47
2023-05-04T02:27:01.965Z,102101.13
2023-05-04T02:29:29.210Z,102111.34
2023-05-04T02:31:57.563Z,102111.72
2023-05-04T02:34:24.606Z,102107.56
2023-05-04T02:36:51.777Z,102114.09
2023-05-04T02:39:18.763Z,102109.31
2023-05-04T02:41:45.809Z,102125.69
2023-05-04T02:44:12.734Z,102113.09
2023-05-04T02:46:39.681Z,102107.50
2023-05-04T02:49:07.062Z,102111.34
2023-05-04T02:51:34.134Z,102112.53
2023-05-04T02:54:01.363Z,102106.09
2023-05-04T02:56:28.771Z,102112.41
2023-05-04T02:58:55.830Z,102114.63
2023-05-04T03:01:22.721Z,102113.34
2023-05-04T03:03:49.743Z,102116.19
2023-05-04T03:06:16.731Z,102105.06
2023-05-04T03:08:43.806Z,102104.44
2023-05-04T03:11:10.859Z,102109.09
2023-05-04T03:13:37.834Z,102104.16
2023-05-04T03:16:05.687Z,102102.50
2023-05-04T03:18:32.732Z,102104.69
2023-05-04T03:21:00.180Z,102104.84
2023-05-04T03:23:27.244Z,102105.84
2023-05-04T03:25:54.160Z,102102.72
2023-05-04T03:28:21.246Z,102098.22
2023-05-04T03:30:48.433Z,102107.22
2023-05-04T03:33:15.421Z,102105.56
2023-05-04T03:35:42.914Z,102110.06
2023-05-04T03:38:11.357Z,102095.66
2023-05-04T03:40:38.524Z,102105.94
2023-05-04T03:43:05.804Z,102102.97
2023-05-04T03:45:32.937Z,102114.09
2023-05-04T03:48:00.096Z,102104.81
2023-05-04T03:50:28.136Z,102095.00
2023-05-04T03:52:55.108Z,102093.16
2023-05-04T03:55:24.003Z,102093.34
2023-05-04T03:57:51.594Z,102098.31
2023-05-04T04:00:19.383Z,102102.97
2023-05-04T04:02:54.223Z,102105.66
2023-05-04T04:05:21.368Z,102101.97
2023-05-04T04:07:50.804Z,102087.84
2023-05-04T04:10:18.222Z,102107.13
2023-05-04T04:12:45.144Z,102111.44
2023-05-04T04:15:12.549Z,102105.94
2023-05-04T04:17:39.663Z,102099.78
2023-05-04T04:20:07.796Z,102092.44
2023-05-04T04:22:36.179Z,102099.59
2023-05-04T04:25:03.393Z,102102.25
2023-05-04T04:27:30.924Z,102104.38
2023-05-04T04:29:57.834Z,102100.53
2023-05-04T04:32:25.319Z,102101.22
2023-05-04T04:34:52.230Z,102096.53
2023-05-04T04:37:19.154Z,102095.16
2023-05-04T04:39:46.074Z,102100.75
2023-05-04T04:42:13.559Z,102093.22
2023-05-04T04:44:40.819Z,102103.16
2023-05-04T04:47:07.935Z,102097.63
2023-05-04T04:49:35.010Z,102100.75
2023-05-04T04:52:02.760Z,102105.53
2023-05-04T04:54:29.857Z,102101.53
2023-05-04T04:56:56.927Z,102092.16
2023-05-04T04:59:24.848Z,102101.91
2023-05-04T05:01:51.954Z,102095.81
2023-05-04T05:04:19.860Z,102101.25
2023-05-04T05:06:47.790Z,102096.81
2023-05-04T05:09:14.646Z,102103.25
2023-05-04T05:11:41.547Z,102104.97
2023-05-04T05:14:08.611Z,102099.53
2023-05-04T05:16:35.833Z,102081.97
2023-05-04T05:19:03.396Z,102078.38
2023-05-04T05:21:30.416Z,102086.88
2023-05-04T05:23:57.363Z,102085.94
2023-05-04T05:26:24.811Z,102084.84
2023-05-04T05:28:51.904Z,102087.00
2023-05-04T05:31:18.812Z,102087.69
2023-05-04T05:33:45.909Z,102095.19
2023-05-04T05:36:14.627Z,102089.72
2023-05-04T05:38:41.629Z,102090.41
2023-05-04T05:41:09.710Z,102082.88
2023-05-04T05:43:38.527Z,102092.03
2023-05-04T05:46:06.834Z,102094.41
2023-05-04T05:48:34.117Z,102092.03
2023-05-04T05:51:01.061Z,102087.16
2023-05-04T05:53:27.954Z,102074.66
2023-05-04T05:55:54.851Z,102080.91
2023-05-04T05:58:21.898Z,102077.88
2023-05-04T06:00:48.863Z,102074.44
2023-05-04T06:03:16.085Z,102075.09
2023-05-04T06:05:43.337Z,102088.53
2023-05-04T06:08:10.522Z,102080.34
2023-05-04T06:10:37.451Z,102081.19
2023-05-04T06:13:04.410Z,102081.44
2023-05-04T06:15:31.484Z,102080.84
2023-05-04T06:17:58.487Z,102079.44
2023-05-04T06:20:25.846Z,102082.34
2023-05-04T06:22:52.867Z,102077.22
2023-05-04T06:25:19.786Z,102073.34
2023-05-04T06:27:47.391Z,102082.38
2023-05-04T06:30:15.838Z,102069.22
2023-05-04T06:32:42.886Z,102077.22
2023-05-04T06:35:10.615Z,102087.94
2023-05-04T06:37:37.857Z,102083.78
2023-05-04T06:40:05.531Z,102069.75
2023-05-04T06:42:33.120Z,102077.97
2023-05-04T06:45:00.208Z,102078.78
2023-05-04T06:47:27.388Z,102072.97
2023-05-04T06:49:54.445Z,102075.63
2023-05-04T06:52:21.698Z,102081.56
2023-05-04T06:54:48.744Z,102078.19
2023-05-04T06:57:15.694Z,102084.31
2023-05-04T06:59:42.588Z,102082.16
2023-05-04T07:02:09.829Z,102075.47
2023-05-04T07:04:37.196Z,102077.19
2023-05-04T07:07:04.056Z,102079.78
2023-05-04T07:09:31.150Z,102085.84
2023-05-04T07:11:58.166Z,102075.78
2023-05-04T07:14:25.344Z,102075.63
2023-05-04T07:16:52.422Z,102071.28
2023-05-04T07:19:19.470Z,102060.53
2023-05-04T07:21:47.312Z,102062.59
2023-05-04T07:24:14.692Z,102072.50
2023-05-04T07:26:41.876Z,102066.84
2023-05-04T07:29:09.577Z,102056.03
2023-05-04T07:31:38.445Z,102057.13
2023-05-04T07:34:05.659Z,102049.69
2023-05-04T07:36:35.692Z,102054.66
2023-05-04T07:39:02.614Z,102041.97
2023-05-04T07:41:29.682Z,102049.66
2023-05-04T07:43:56.582Z,102038.09
2023-05-04T07:46:24.255Z,102041.75
2023-05-04T07:48:51.594Z,102034.44
2023-05-04T07:51:18.542Z,102032.81
2023-05-04T07:53:45.661Z,102038.78
2023-05-04T07:56:13.960Z,102025.28
2023-05-04T07:58:41.486Z,102018.06
2023-05-04T08:01:08.760Z,102026.56
2023-05-04T08:03:36.534Z,102021.84
2023-05-04T08:06:03.672Z,102017.84
2023-05-04T08:08:30.743Z,102015.97
2023-05-04T08:11:11.675Z,102002.63
2023-05-04T08:13:49.908Z,102011.78
2023-05-04T08:16:17.051Z,102000.16
2023-05-04T08:18:44.170Z,102009.94
2023-05-04T08:21:11.114Z,101999.78
2023-05-04T08:23:38.520Z,102007.56
2023-05-04T08:26:05.641Z,102004.56
2023-05-04T08:28:39.685Z,102000.66
2023-05-04T08:31:07.763Z,102003.84
2023-05-04T08:33:35.101Z,101989.44
2023-05-04T08:36:03.950Z,101991.09
2023-05-04T08:38:31.143Z,101989.22
2023-05-04T08:40:58.081Z,101990.22
2023-05-04T08:43:25.338Z,101999.75
2023-05-04T08:45:52.980Z,101999.81
2023-05-04T08:48:20.105Z,101970.44
2023-05-04T08:50:47.867Z,101989.63
2023-05-04T08:53:18.911Z,101984.84
2023-05-04T08:55:47.666Z,101972.88
2023-05-04T08:58:17.869Z,101979.00
2023-05-04T09:00:46.150Z,101977.72
2023-05-04T09:03:15.069Z,101967.28
2023-05-04T09:05:43.055Z,101969.13
2023-05-04T09:08:10.045Z,101951.19
2023-05-04T09:10:37.112Z,101961.59
2023-05-04T09:13:04.138Z,101958.19
2023-05-04T09:15:32.411Z,101958.34
2023-05-04T09:18:06.385Z,101953.84
2023-05-04T09:20:47.510Z,101962.94
2023-05-04T09:23:17.959Z,101956.72
2023-05-04T09:25:50.554Z,101956.19
2023-05-04T09:28:18.892Z,101954.88
2023-05-04T09:30:48.845Z,101950.44
2023-05-04T09:33:16.540Z,101945.69
2023-05-04T09:35:46.819Z,101943.97
2023-05-04T09:38:28.182Z,101939.41
2023-05-04T09:40:55.391Z,101942.91
2023-05-04T09:43:24.612Z,101946.81
2023-05-04T09:45:51.764Z,101931.59
2023-05-04T09:48:27.232Z,101921.91
2023-05-04T09:50:57.980Z,101921.75
2023-05-04T09:53:30.516Z,101931.34
2023-05-04T09:56:22.001Z,101927.41
2023-05-04T09:58:50.397Z,101923.41
2023-05-04T10:01:17.926Z,101918.81
2023-05-04T10:03:46.092Z,101907.13
2023-05-04T10:06:13.204Z,101906.53
2023-05-04T10:08:41.257Z,101904.94
2023-05-04T10:11:08.688Z,101902.78
2023-05-04T10:13:36.035Z,101898.41
2023-05-04T10:16:16.338Z,101892.00
2023-05-04T10:18:52.040Z,101892.56
2023-05-04T10:21:42.628Z,101885.56
2023-05-04T10:24:32.878Z,101869.44
2023-05-04T10:27:05.988Z,101873.53
2023-05-04T10:29:34.075Z,101868.72
2023-05-04T10:32:02.243Z,101863.00
2023-05-04T10:34:31.731Z,101861.31
2023-05-04T10:37:00.369Z,101854.06
2023-05-04T10:39:32.010Z,101852.72
2023-05-04T10:42:04.471Z,101844.13
2023-05-04T10:44:34.393Z,101839.41
2023-05-04T10:47:07.404Z,101839.44
2023-05-04T10:49:35.545Z,101838.66
2023-05-04T10:52:06.486Z,101828.59
2023-05-04T10:54:34.233Z,101824.19
2023-05-04T10:57:09.067Z,101823.41
2023-05-04T10:59:37.768Z,101818.25
2023-05-04T11:02:06.682Z,101816.59
2023-05-04T11:04:35.182Z,101814.16
2023-05-04T11:07:08.267Z,101805.75
2023-05-04T11:09:42.178Z,101806.22
2023-05-04T11:12:10.708Z,101807.41
2023-05-04T11:14:43.430Z,101802.59
2023-05-04T11:17:27.593Z,101797.75
2023-05-04T11:19:55.635Z,101794.16
2023-05-04T11:22:22.857Z,101794.59
2023-05-04T11:24:50.088Z,101786.59
2023-05-04T11:27:24.454Z,101789.84
2023-05-04T11:29:59.953Z,101777.00
2023-05-04T11:32:37.146Z,101784.22
2023-05-04T11:35:08.365Z,101787.41
2023-05-04T11:37:40.573Z,101779.78
2023-05-04T11:40:21.034Z,101787.63
2023-05-04T11:42:50.111Z,101774.38
2023-05-04T11:45:22.061Z,101773.19
2023-05-04T11:47:51.245Z,101769.19
2023-05-04T11:50:20.709Z,101780.00
2023-05-04T11:52:48.505Z,101771.22
2023-05-04T11:55:30.479Z,101768.31
2023-05-04T11:58:03.417Z,101767.56
2023-05-04T12:00:47.059Z,101764.94
2023-05-04T12:03:32.612Z,101758.06
2023-05-04T12:06:07.272Z,101750.31
2023-05-04T12:08:44.489Z,101759.09
2023-05-04T12:11:17.135Z,101744.59
2023-05-04T12:13:45.661Z,101743.22
2023-05-04T12:16:20.614Z,101737.84
2023-05-04T12:18:48.467Z,101738.03
2023-05-04T12:21:18.892Z,101740.66
2023-05-04T12:23:46.967Z,101746.31
2023-05-04T12:26:16.897Z,101739.94
2023-05-04T12:28:46.122Z,101738.72
2023-05-04T12:31:13.292Z,101744.72
2023-05-04T12:33:40.327Z,101741.91
2023-05-04T12:36:07.708Z,101742.31
2023-05-04T12:38:35.119Z,101743.06
2023-05-04T12:41:04.249Z,101734.56
2023-05-04T12:43:32.163Z,101742.03
2023-05-04T12:45:59.527Z,101734.81
2023-05-04T12:48:28.449Z,101734.38
2023-05-04T12:50:56.173Z,101730.84
2023-05-04T12:53:25.914Z,101730.88
2023-05-04T12:55:52.890Z,101722.13
2023-05-04T12:58:20.094Z,101717.47
2023-05-04T13:00:47.040Z,101718.28
2023-05-04T13:03:14.631Z,101710.78
2023-05-04T13:05:41.753Z,101719.69
2023-05-04T13:08:08.980Z,101702.63
2023-05-04T13:10:36.094Z,101711.41
2023-05-04T13:13:04.779Z,101705.81
2023-05-04T13:15:33.258Z,101697.03
2023-05-04T13:18:00.494Z,101700.59
2023-05-04T13:20:27.784Z,101697.81
2023-05-04T13:22:58.194Z,101693.44
2023-05-04T13:25:25.686Z,101688.25
2023-05-04T13:27:52.968Z,101686.19
2023-05-04T13:30:21.735Z,101682.63
2023-05-04T13:32:49.098Z,101680.59
2023-05-04T13:35:16.591Z,101673.84
2023-05-04T13:37:43.526Z,101681.84
2023-05-04T13:40:11.510Z,101673.75
2023-05-04T13:42:38.731Z,101668.06
2023-05-04T13:45:06.991Z,101679.63
2023-05-04T13:47:36.974Z,101668.34
2023-05-04T13:52:45.398Z,101662.00
2023-05-04T13:55:13.849Z,101652.56
2023-05-04T13:57:40.746Z,101667.03
2023-05-04T14:00:08.815Z,101657.56
2023-05-04T14:02:39.127Z,101644.03
2023-05-04T14:05:07.816Z,101646.63
2023-05-04T14:07:35.471Z,101638.22
2023-05-04T14:10:02.482Z,101651.22
2023-05-04T14:12:29.587Z,101647.38
2023-05-04T14:14:57.241Z,101640.44
2023-05-04T14:17:24.698Z,101629.34
2023-05-04T14:19:51.707Z,101634.72
2023-05-04T14:22:18.631Z,101626.81
2023-05-04T14:24:45.741Z,101614.53
2023-05-04T14:27:12.732Z,101613.13
2023-05-04T14:29:39.555Z,101600.97
2023-05-04T14:32:07.031Z,101599.53
2023-05-04T14:34:34.149Z,101601.53
2023-05-04T14:37:01.524Z,101587.44
2023-05-04T14:39:28.626Z,101583.81
2023-05-04T14:41:57.106Z,101589.13
2023-05-04T14:44:25.952Z,101578.03
2023-05-04T14:46:53.068Z,101579.59
2023-05-04T14:49:35.003Z,101579.53
2023-05-04T14:52:04.410Z,101578.22
2023-05-04T14:54:31.339Z,101568.03
2023-05-04T14:56:59.731Z,101575.38
2023-05-04T14:59:26.624Z,101574.22
2023-05-04T15:01:55.052Z,101576.75
2023-05-04T15:04:22.427Z,101582.72
2023-05-04T15:06:49.941Z,101579.44
2023-05-04T15:09:16.921Z,101579.00
2023-05-04T15:11:44.024Z,101576.97
2023-05-04T15:14:11.162Z,101577.22
2023-05-04T15:16:38.731Z,101572.44
2023-05-04T15:19:06.330Z,101570.28
2023-05-04T15:21:33.869Z,101568.25
2023-05-04T15:24:00.853Z,101552.34
2023-05-04T15:26:29.114Z,101545.03
2023-05-04T15:28:56.171Z,101556.91
2023-05-04T15:31:23.379Z,101539.06
2023-05-04T15:33:50.242Z,101546.47
2023-05-04T15:36:17.255Z,101547.97
2023-05-04T15:38:44.307Z,101545.94
2023-05-04T15:41:11.579Z,101539.22
2023-05-04T15:43:38.666Z,101538.03
2023-05-04T15:46:05.565Z,101546.66
2023-05-04T15:48:32.588Z,101535.34
2023-05-04T15:50:59.857Z,101540.78
2023-05-04T15:53:27.465Z,101547.47
2023-05-04T15:55:54.565Z,101541.75
2023-05-04T15:58:21.554Z,101529.09
2023-05-04T16:00:48.660Z,101540.16
2023-05-04T16:03:16.022Z,101539.06
2023-05-04T16:05:43.824Z,101533.81
2023-05-04T16:08:11.514Z,101538.78
2023-05-04T16:10:38.548Z,101534.22
2023-05-04T16:13:05.753Z,101540.81
2023-05-04T16:15:33.046Z,101528.97
2023-05-04T16:18:00.140Z,101532.63
2023-05-04T16:20:28.864Z,101530.44
2023-05-04T16:22:56.271Z,101522.75
2023-05-04T16:25:23.426Z,101530.25
2023-05-04T16:27:50.429Z,101524.16
2023-05-04T16:30:17.869Z,101521.13
2023-05-04T16:32:45.216Z,101521.94
2023-05-04T16:35:12.418Z,101522.47
2023-05-04T16:37:39.674Z,101526.03
2023-05-04T16:40:14.992Z,101521.69
2023-05-04T16:42:43.034Z,101514.41
2023-05-04T16:45:13.622Z,101511.47
2023-05-04T16:47:42.497Z,101513.88
2023-05-04T16:50:11.547Z,101514.13
2023-05-04T16:52:39.869Z,101501.34
2023-05-04T16:55:10.682Z,101513.34
2023-05-04T16:57:38.990Z,101504.16
2023-05-04T17:00:07.530Z,101509.88
2023-05-04T17:02:35.861Z,101505.56
2023-05-04T17:05:06.531Z,101503.06
2023-05-04T17:07:34.072Z,101512.81
2023-05-04T17:10:01.485Z,101515.00
2023-05-04T17:12:28.873Z,101508.84
2023-05-04T17:14:56.233Z,101507.63
2023-05-04T17:17:23.203Z,101510.16
2023-05-04T17:19:50.166Z,101515.41
2023-05-04T17:22:17.466Z,101506.19
2023-05-04T17:24:45.746Z,101510.00
2023-05-04T17:27:13.395Z,101507.59
2023-05-04T17:29:41.111Z,101511.59
2023-05-04T17:32:08.394Z,101510.72
2023-05-04T17:34:36.278Z,101515.25
2023-05-04T17:37:03.353Z,101512.16
2023-05-04T17:39:31.846Z,101517.47
2023-05-04T17:41:59.276Z,101516.28
2023-05-04T17:44:28.167Z,101517.78
2023-05-04T17:46:55.245Z,101511.44
2023-05-04T17:49:22.288Z,101515.91
2023-05-04T17:51:49.400Z,101510.88
2023-05-04T17:54:17.187Z,101517.56
2023-05-04T17:56:44.399Z,101516.94
2023-05-04T17:59:11.581Z,101512.44
2023-05-04T18:01:38.607Z,101515.78
2023-05-04T18:04:05.843Z,101510.72
2023-05-04T18:06:33.323Z,101519.81
2023-05-04T18:09:01.232Z,101525.09
2023-05-04T18:11:28.486Z,101527.97
2023-05-04T18:13:56.446Z,101526.97
2023-05-04T18:16:24.631Z,101539.56
2023-05-04T18:18:52.537Z,101534.47
2023-05-04T18:21:19.476Z,101538.38
2023-05-04T18:23:46.798Z,101538.44
2023-05-04T18:26:22.845Z,101553.16
2023-05-04T18:28:50.130Z,101544.00
2023-05-04T18:31:17.681Z,101547.84
2023-05-04T18:33:45.121Z,101542.47
2023-05-04T18:36:12.246Z,101544.63
2023-05-04T18:38:39.252Z,101548.44
2023-05-04T18:41:06.653Z,101559.88
2023-05-04T18:43:34.025Z,101546.34
2023-05-04T18:46:08.235Z,101545.28
2023-05-04T18:48:35.365Z,101557.47
2023-05-04T18:51:02.652Z,101557.78
2023-05-04T18:53:29.972Z,101561.03
2023-05-04T18:56:07.629Z,101567.28
2023-05-04T18:58:36.495Z,101559.66
2023-05-04T19:01:04.019Z,101573.22
2023-05-04T19:03:32.104Z,101565.91
2023-05-04T19:05:59.272Z,101575.66
2023-05-04T19:08:26.461Z,101574.84
2023-05-04T19:10:59.084Z,101577.28
2023-05-04T19:13:26.286Z,101573.47
2023-05-04T19:15:53.271Z,101579.38
2023-05-04T19:18:20.830Z,101581.81
2023-05-04T19:20:48.655Z,101576.66
2023-05-04T19:23:15.950Z,101579.63
2023-05-04T19:25:43.168Z,101573.38
2023-05-04T19:28:10.053Z,101569.03
2023-05-04T19:30:37.869Z,101573.34
2023-05-04T19:33:06.885Z,101564.94
2023-05-04T19:35:34.172Z,101565.16
2023-05-04T19:38:01.734Z,101569.75
2023-05-04T19:40:28.888Z,101568.91
2023-05-04T19:42:55.802Z,101574.56
2023-05-04T19:45:23.426Z,101572.94
2023-05-04T19:47:50.864Z,101564.81
2023-05-04T19:50:18.311Z,101568.56
2023-05-04T19:52:45.330Z,101576.41
2023-05-04T19:55:12.553Z,101576.59
2023-05-04T19:57:39.689Z,101580.66
2023-05-04T20:00:09.637Z,101575.75
2023-05-04T20:02:39.835Z,101590.63
2023-05-04T20:05:07.235Z,101587.88
2023-05-04T20:07:34.559Z,101582.44
2023-05-04T20:10:03.024Z,101584.81
2023-05-04T20:12:30.354Z,101576.69
2023-05-04T20:14:57.488Z,101582.88
2023-05-04T20:17:24.480Z,101577.38
2023-05-04T20:19:51.424Z,101585.47
2023-05-04T20:22:18.306Z,101575.94
2023-05-04T20:24:45.484Z,101575.91
2023-05-04T20:27:13.041Z,101582.91
2023-05-04T20:29:40.079Z,101588.28
2023-05-04T20:32:07.897Z,101583.91
2023-05-04T20:34:36.177Z,101577.09
2023-05-04T20:37:03.093Z,101573.75
2023-05-04T20:39:30.444Z,101575.34
2023-05-04T20:41:57.908Z,101569.31
2023-05-04T20:44:25.384Z,101567.38
2023-05-04T20:46:52.240Z,101568.16
2023-05-04T20:49:19.203Z,101574.03
2023-05-04T20:51:46.318Z,101579.63
2023-05-04T20:54:13.338Z,101577.66
2023-05-04T20:56:40.483Z,101581.38
2023-05-04T20:59:08.333Z,101580.78
2023-05-04T21:01:35.273Z,101578.28
2023-05-04T21:04:02.453Z,101564.66
2023-05-04T21:06:29.558Z,101567.56
2023-05-04T21:08:59.496Z,101566.13
2023-05-04T21:11:26.548Z,101566.53
2023-05-04T21:13:54.113Z,101558.31
2023-05-04T21:16:21.389Z,101555.78
2023-05-04T21:18:48.424Z,101557.88
2023-05-04T21:21:15.951Z,101558.88
2023-05-04T21:23:43.052Z,101552.81
2023-05-04T21:26:09.919Z,101560.50
2023-05-04T21:28:36.893Z,101555.78
2023-05-04T21:31:08.234Z,101564.06
2023-05-04T21:33:36.245Z,101562.03
2023-05-04T21:36:14.215Z,101552.16
2023-05-04T21:38:41.730Z,101556.09
2023-05-04T21:41:16.724Z,101549.81
2023-05-04T21:43:43.660Z,101546.69
2023-05-04T21:46:12.097Z,101558.44
2023-05-04T21:48:39.666Z,101552.38
2023-05-04T21:51:06.832Z,101556.28
2023-05-04T21:53:33.760Z,101550.56
2023-05-04T21:56:06.732Z,101562.88
2023-05-04T21:58:34.191Z,101561.16
2023-05-04T22:01:01.164Z,101555.69
2023-05-04T22:03:29.644Z,101560.19
2023-05-04T22:05:57.849Z,101557.16
2023-05-04T22:08:25.721Z,101560.56
2023-05-04T22:10:54.294Z,101570.19
2023-05-04T22:13:21.787Z,101570.34
2023-05-04T22:15:50.542Z,101570.25
2023-05-04T22:18:18.341Z,101567.47
2023-05-04T22:20:46.031Z,101563.03
2023-05-04T22:23:13.513Z,101576.75
2023-05-04T22:25:40.640Z,101566.13
2023-05-04T22:28:07.880Z,101568.69
2023-05-04T22:30:34.888Z,101562.41
2023-05-04T22:33:01.891Z,101562.25
2023-05-04T22:35:31.344Z,101569.63
2023-05-04T22:37:58.493Z,101562.84
2023-05-04T22:40:26.042Z,101570.59
2023-05-04T22:42:53.038Z,101559.38
2023-05-04T22:45:20.279Z,101577.88
2023-05-04T22:47:47.309Z,101569.94
2023-05-04T22:50:14.867Z,101574.16
2023-05-04T22:52:42.073Z,101585.84
2023-05-04T22:55:09.474Z,101586.31
2023-05-04T22:57:36.724Z,101588.91
2023-05-04T23:00:08.307Z,101581.53
2023-05-04T23:02:36.187Z,101586.78
2023-05-04T23:05:03.941Z,101574.53
2023-05-04T23:07:31.044Z,101573.13
2023-05-04T23:09:58.144Z,101593.22
2023-05-04T23:12:26.904Z,101585.63
2023-05-04T23:14:54.605Z,101581.16
2023-05-04T23:17:22.096Z,101588.06
2023-05-04T23:19:49.198Z,101583.38
2023-05-04T23:22:16.361Z,101585.94
2023-05-04T23:24:43.368Z,101582.91
2023-05-04T23:27:11.495Z,101585.47
2023-05-04T23:29:38.672Z,101588.63
2023-05-04T23:32:06.395Z,101589.06
2023-05-04T23:34:33.667Z,101584.00
2023-05-04T23:37:01.080Z,101582.38
2023-05-04T23:39:28.078Z,101583.41
2023-05-04T23:41:54.980Z,101574.19
2023-05-04T23:44:21.917Z,101576.53
2023-05-04T23:46:48.829Z,101574.88
2023-05-04T23:49:16.319Z,101572.44
2023-05-04T23:51:43.401Z,101567.50
2023-05-04T23:54:10.557Z,101564.84
2023-05-04T23:56:37.494Z,101570.66
2023-05-04T23:59:04.346Z,101567.97
